Time;durP1;ratioP1;P1;durP2;ratioP2;P2;SDS_P1;SDS_P2;PMS_P1;PMS_P2;Temp;Humidity;BMP_temperature;BMP_pressure;BME280_temperature;BME280_humidity;BME280_pressure;Samples;Min_cycle;Max_cycle;Signal;HPM_P1;HPM_P2
2024/01/30 00:02:01;;;;;;;;;;;;;;;-2.61;100.00;103043.63;107686;1256;488360;-69
2024/01/30 00:04:29;;;;;;;;;;;;;;;-2.57;100.00;103042.63;108133;1254;60434;-69
2024/01/30 00:06:57;;;;;;;;;;;;;;;-2.52;100.00;103040.02;108023;1254;72757;-69
2024/01/30 00:09:25;;;;;;;;;;;;;;;-2.47;100.00;103042.09;107997;1254;72742;-70
2024/01/30 00:11:53;;;;;;;;;;;;;;;-2.39;100.00;103042.42;108024;1257;72694;-70
2024/01/30 00:14:20;;;;;;;;;;;;;;;-2.33;100.00;103035.72;108098;1254;60425;-69
2024/01/30 00:16:48;;;;;;;;;;;;;;;-2.30;100.00;103031.08;108008;1254;60521;-72
2024/01/30 00:19:17;;;;;;;;;;;;;;;-2.24;100.00;103031.70;107954;1254;72854;-69
2024/01/30 00:21:45;;;;;;;;;;;;;;;-2.18;100.00;103031.28;108021;1254;73104;-69
2024/01/30 00:24:13;;;;;;;;;;;;;;;-2.13;100.00;103025.28;108053;1254;71488;-70
2024/01/30 00:26:42;;;;;;;;;;;;;;;-2.07;100.00;103022.27;108025;1254;60885;-69
2024/01/30 00:29:10;;;;;;;;;;;;;;;-2.02;100.00;103021.34;108096;1254;60337;-71
2024/01/30 00:31:39;;;;;;;;;;;;;;;-1.98;100.00;103017.91;108173;1254;73859;-69
2024/01/30 00:34:09;;;;;;;;;;;;;;;-1.95;100.00;103021.55;108113;1254;73080;-69
2024/01/30 00:36:44;;;;;;;;;;;;;;;-1.97;100.00;103015.25;108148;1257;73079;-69
2024/01/30 00:39:26;;;;;;;;;;;;;;;-1.96;100.00;103015.37;107972;1254;60528;-69
2024/01/30 00:41:54;;;;;;;;;;;;;;;-1.94;100.00;103013.06;108094;1254;60412;-69
2024/01/30 00:44:21;;;;;;;;;;;;;;;-1.94;100.00;103011.35;107920;1256;72696;-70
2024/01/30 00:46:49;;;;;;;;;;;;;;;-1.93;100.00;103012.09;108054;1257;72484;-69
2024/01/30 00:49:17;;;;;;;;;;;;;;;-1.93;100.00;103007.73;107901;1256;71408;-69
2024/01/30 00:51:45;;;;;;;;;;;;;;;-1.95;100.00;103005.44;107935;1254;60321;-69
2024/01/30 00:54:12;;;;;;;;;;;;;;;-1.96;100.00;103001.23;107990;1254;59858;-70
2024/01/30 00:56:40;;;;;;;;;;;;;;;-1.94;100.00;102995.60;108142;1254;71942;-70
2024/01/30 00:59:08;;;;;;;;;;;;;;;-1.95;100.00;102990.48;108100;1254;71588;-71
2024/01/30 01:01:36;;;;;;;;;;;;;;;-1.94;100.00;102987.23;108067;1254;72714;-71
2024/01/30 01:04:04;;;;;;;;;;;;;;;-1.90;100.00;102991.48;108051;1256;60381;-68
2024/01/30 01:06:32;;;;;;;;;;;;;;;-1.89;100.00;102989.45;108045;1254;60303;-68
2024/01/30 01:09:00;;;;;;;;;;;;;;;-1.88;100.00;102985.23;108058;1254;72817;-69
2024/01/30 01:11:31;;;;;;;;;;;;;;;-1.85;100.00;102981.88;107954;1257;71709;-69
2024/01/30 01:13:59;;;;;;;;;;;;;;;-1.88;100.00;102977.22;107964;1254;72757;-69
2024/01/30 01:16:27;;;;;;;;;;;;;;;-1.87;100.00;102968.41;108094;1254;61513;-69
2024/01/30 01:18:55;;;;;;;;;;;;;;;-1.87;100.00;102964.17;108108;1254;60409;-70
2024/01/30 01:21:23;;;;;;;;;;;;;;;-1.84;100.00;102961.04;108072;1254;73830;-69
2024/01/30 01:23:50;;;;;;;;;;;;;;;-1.85;100.00;102961.22;108040;1254;72840;-70
2024/01/30 01:26:18;;;;;;;;;;;;;;;-1.84;100.00;102960.29;108047;1254;71540;-69
2024/01/30 01:28:46;;;;;;;;;;;;;;;-1.84;100.00;102953.15;108046;1254;60319;-68
2024/01/30 01:31:14;;;;;;;;;;;;;;;-1.86;100.00;102950.17;108081;1254;60361;-69
2024/01/30 01:33:41;;;;;;;;;;;;;;;-1.87;100.00;102941.48;108062;1253;72549;-70
2024/01/30 01:36:09;;;;;;;;;;;;;;;-1.88;100.00;102934.75;108084;1254;71813;-70
2024/01/30 01:38:37;;;;;;;;;;;;;;;-1.87;100.00;102931.03;108111;1260;72729;-70
2024/01/30 01:41:04;;;;;;;;;;;;;;;-1.86;100.00;102923.84;108050;1254;60532;-71
2024/01/30 01:43:32;;;;;;;;;;;;;;;-1.86;100.00;102922.91;108069;1254;60206;-70
2024/01/30 01:46:01;;;;;;;;;;;;;;;-1.84;100.00;102918.55;108016;1254;74502;-70
2024/01/30 01:48:29;;;;;;;;;;;;;;;-1.83;100.00;102908.39;108073;1254;71450;-69
2024/01/30 01:50:57;;;;;;;;;;;;;;;-1.85;100.00;102904.30;108044;1254;72684;-69
2024/01/30 01:53:25;;;;;;;;;;;;;;;-1.84;100.00;102898.52;108068;1254;60310;-69
2024/01/30 01:55:53;;;;;;;;;;;;;;;-1.82;100.00;102888.73;108066;1254;60343;-70
2024/01/30 01:58:23;;;;;;;;;;;;;;;-1.81;100.00;102889.14;107993;1254;73904;-69
2024/01/30 02:00:51;;;;;;;;;;;;;;;-1.78;100.00;102886.30;108085;1254;72723;-69
2024/01/30 02:03:21;;;;;;;;;;;;;;;-1.75;100.00;102886.42;108021;1254;71436;-70
2024/01/30 02:05:51;;;;;;;;;;;;;;;-1.73;100.00;102887.67;108000;1260;61118;-68
2024/01/30 02:08:18;;;;;;;;;;;;;;;-1.70;100.00;102886.52;108041;1254;60435;-68
2024/01/30 02:10:46;;;;;;;;;;;;;;;-1.69;100.00;102887.48;108063;1254;71589;-69
2024/01/30 02:13:14;;;;;;;;;;;;;;;-1.69;100.00;102882.61;108011;1257;71354;-68
2024/01/30 02:15:42;;;;;;;;;;;;;;;-1.69;100.00;102881.55;108038;1256;71867;-68
2024/01/30 02:18:09;;;;;;;;;;;;;;;-1.67;100.00;102880.73;108060;1256;60967;-69
2024/01/30 02:20:37;;;;;;;;;;;;;;;-1.67;100.00;102876.36;108083;1254;59848;-69
2024/01/30 02:23:05;;;;;;;;;;;;;;;-1.66;100.00;102871.95;108119;1254;72303;-69
2024/01/30 02:25:33;;;;;;;;;;;;;;;-1.63;100.00;102872.79;108033;1253;71609;-71
2024/01/30 02:28:00;;;;;;;;;;;;;;;-1.60;100.00;102870.95;108045;1253;71523;-68
2024/01/30 02:30:28;;;;;;;;;;;;;;;-1.57;100.00;102875.61;108001;1254;60318;-69
2024/01/30 02:32:56;;;;;;;;;;;;;;;-1.54;100.00;102876.28;108057;1254;60294;-69
2024/01/30 02:35:23;;;;;;;;;;;;;;;-1.51;100.00;102878.44;108070;1255;72569;-69
2024/01/30 02:37:51;;;;;;;;;;;;;;;-1.50;100.00;102882.23;107929;1256;71457;-69
2024/01/30 02:40:19;;;;;;;;;;;;;;;-1.51;100.00;102880.77;107978;1256;73326;-69
2024/01/30 02:42:46;;;;;;;;;;;;;;;-1.53;100.00;102883.52;107913;1256;60517;-69
2024/01/30 02:45:16;;;;;;;;;;;;;;;-1.56;100.00;102882.85;107927;1256;61173;-69
2024/01/30 02:47:44;;;;;;;;;;;;;;;-1.60;100.00;102879.66;107928;1255;73922;-69
2024/01/30 02:50:12;;;;;;;;;;;;;;;-1.65;100.00;102882.72;107925;1256;72048;-69
2024/01/30 02:52:40;;;;;;;;;;;;;;;-1.72;100.00;102880.45;107995;1257;71420;-69
2024/01/30 02:55:08;;;;;;;;;;;;;;;-1.78;100.00;102878.12;108051;1257;59297;-68
2024/01/30 02:57:36;;;;;;;;;;;;;;;-1.81;100.00;102871.21;108065;1254;60429;-69
2024/01/30 03:00:09;;;;;;;;;;;;;;;-1.86;100.00;102868.47;108027;1254;72127;-69
2024/01/30 03:02:38;;;;;;;;;;;;;;;-1.94;100.00;102868.69;108010;1254;72880;-69
2024/01/30 03:05:06;;;;;;;;;;;;;;;-2.02;100.00;102874.38;108117;1254;71720;-68
2024/01/30 03:07:33;;;;;;;;;;;;;;;-2.10;100.00;102872.17;108030;1260;61389;-69
2024/01/30 03:10:02;;;;;;;;;;;;;;;-2.16;100.00;102870.55;108121;1254;59574;-69
2024/01/30 03:12:29;;;;;;;;;;;;;;;-2.21;100.00;102867.39;108075;1254;71645;-69
2024/01/30 03:14:59;;;;;;;;;;;;;;;-2.22;100.00;102868.17;108007;1254;71506;-69
2024/01/30 03:17:26;;;;;;;;;;;;;;;-2.21;100.00;102863.61;108053;1254;71385;-69
2024/01/30 03:19:55;;;;;;;;;;;;;;;-2.21;100.00;102868.48;108060;1254;60383;-70
2024/01/30 03:22:23;;;;;;;;;;;;;;;-2.24;100.00;102868.53;108068;1253;60309;-69
2024/01/30 03:24:52;;;;;;;;;;;;;;;-2.26;100.00;102866.39;108027;1253;72630;-69
2024/01/30 03:27:20;;;;;;;;;;;;;;;-2.28;100.00;102856.96;107978;1257;71463;-69
2024/01/30 03:29:48;;;;;;;;;;;;;;;-2.31;100.00;102853.02;107932;1256;71676;-69
2024/01/30 03:32:15;;;;;;;;;;;;;;;-2.37;100.00;102850.30;107894;1256;60200;-69
2024/01/30 03:34:43;;;;;;;;;;;;;;;-2.41;100.00;102850.78;107939;1256;59185;-69
2024/01/30 03:37:11;;;;;;;;;;;;;;;-2.42;100.00;102854.71;107965;1255;73865;-69
2024/01/30 03:39:38;;;;;;;;;;;;;;;-2.42;100.00;102854.67;107962;1257;71407;-70
2024/01/30 03:42:06;;;;;;;;;;;;;;;-2.41;100.00;102858.95;107926;1257;71424;-68
2024/01/30 03:44:34;;;;;;;;;;;;;;;-2.41;100.00;102863.16;107915;1256;60457;-69
2024/01/30 03:47:01;;;;;;;;;;;;;;;-2.41;100.00;102861.39;108020;1256;59853;-69
2024/01/30 03:49:29;;;;;;;;;;;;;;;-2.43;100.00;102861.95;107941;1257;72726;-70
2024/01/30 03:51:57;;;;;;;;;;;;;;;-2.46;100.00;102863.93;107939;1257;70138;-69
2024/01/30 03:54:25;;;;;;;;;;;;;;;-2.49;100.00;102860.33;107963;1256;71432;-70
2024/01/30 03:56:52;;;;;;;;;;;;;;;-2.53;100.00;102861.13;107955;1256;60440;-70
2024/01/30 03:59:23;;;;;;;;;;;;;;;-2.56;100.00;102862.08;107994;1257;61037;-69
2024/01/30 04:01:52;;;;;;;;;;;;;;;-2.61;100.00;102859.25;107961;1254;72643;-69
2024/01/30 04:04:20;;;;;;;;;;;;;;;-2.65;100.00;102860.27;107940;1257;72856;-68
2024/01/30 04:06:50;;;;;;;;;;;;;;;-2.71;100.00;102859.98;107942;1254;71503;-69
2024/01/30 04:09:18;;;;;;;;;;;;;;;-2.76;100.00;102864.06;108041;1254;60335;-69
2024/01/30 04:11:46;;;;;;;;;;;;;;;-2.82;100.00;102858.73;108063;1254;59764;-69
2024/01/30 04:14:13;;;;;;;;;;;;;;;-2.89;100.00;102854.54;108057;1254;74065;-69
2024/01/30 04:16:41;;;;;;;;;;;;;;;-2.96;100.00;102852.25;108136;1254;71783;-69
2024/01/30 04:19:10;;;;;;;;;;;;;;;-3.03;100.00;102847.52;108140;1254;71484;-69
2024/01/30 04:21:38;;;;;;;;;;;;;;;-3.08;100.00;102850.13;107921;1261;60318;-69
2024/01/30 04:24:06;;;;;;;;;;;;;;;-3.13;100.00;102847.18;108065;1254;59055;-70
2024/01/30 04:26:33;;;;;;;;;;;;;;;-3.17;100.00;102846.09;108040;1254;73750;-70
2024/01/30 04:29:01;;;;;;;;;;;;;;;-3.21;100.00;102846.23;108149;1254;72597;-70
2024/01/30 04:31:29;;;;;;;;;;;;;;;-3.25;100.00;102841.80;108003;1257;71295;-70
2024/01/30 04:33:56;;;;;;;;;;;;;;;-3.30;100.00;102837.45;107999;1254;60402;-70
2024/01/30 04:36:24;;;;;;;;;;;;;;;-3.34;100.00;102834.59;107957;1255;60343;-70
2024/01/30 04:38:52;;;;;;;;;;;;;;;-3.40;100.00;102833.09;107951;1256;72848;-70
2024/01/30 04:41:19;;;;;;;;;;;;;;;-3.46;100.00;102827.95;107937;1257;72000;-70
2024/01/30 04:43:47;;;;;;;;;;;;;;;-3.50;100.00;102836.59;107940;1256;71447;-70
2024/01/30 04:46:14;;;;;;;;;;;;;;;-3.54;100.00;102838.26;107950;1256;60520;-71
2024/01/30 04:48:42;;;;;;;;;;;;;;;-3.58;100.00;102840.25;108030;1254;60207;-70
2024/01/30 04:51:10;;;;;;;;;;;;;;;-3.60;100.00;102842.34;108026;1255;72578;-71
2024/01/30 04:53:39;;;;;;;;;;;;;;;-3.63;100.00;102843.61;108055;1254;72781;-70
2024/01/30 04:56:07;;;;;;;;;;;;;;;-3.70;100.00;102843.05;108039;1254;70397;-70
2024/01/30 04:58:35;;;;;;;;;;;;;;;-3.74;100.00;102843.86;108040;1256;60458;-70
2024/01/30 05:01:03;;;;;;;;;;;;;;;-3.81;100.00;102841.54;108029;1254;60175;-70
2024/01/30 05:03:35;;;;;;;;;;;;;;;-3.85;100.00;102842.86;108070;1254;74774;-70
2024/01/30 05:06:05;;;;;;;;;;;;;;;-3.89;100.00;102842.97;108091;1254;72801;-70
2024/01/30 05:08:32;;;;;;;;;;;;;;;-3.90;100.00;102840.95;108050;1254;72695;-71
2024/01/30 05:11:00;;;;;;;;;;;;;;;-3.90;100.00;102839.59;107970;1254;60447;-70
2024/01/30 05:13:28;;;;;;;;;;;;;;;-3.91;100.00;102835.48;108052;1255;60296;-70
2024/01/30 05:15:56;;;;;;;;;;;;;;;-3.92;100.00;102833.61;107996;1254;72887;-70
2024/01/30 05:18:23;;;;;;;;;;;;;;;-3.94;100.00;102830.14;108061;1254;71455;-70
2024/01/30 05:20:51;;;;;;;;;;;;;;;-3.97;100.00;102834.17;107986;1254;71161;-72
2024/01/30 05:23:18;;;;;;;;;;;;;;;-3.99;100.00;102834.30;108051;1254;60584;-71
2024/01/30 05:25:46;;;;;;;;;;;;;;;-4.03;100.00;102835.62;108057;1253;60340;-70
2024/01/30 05:28:14;;;;;;;;;;;;;;;-4.07;100.00;102838.11;107974;1254;73864;-71
2024/01/30 05:30:42;;;;;;;;;;;;;;;-4.10;100.00;102836.56;108010;1254;71439;-72
2024/01/30 05:33:11;;;;;;;;;;;;;;;-4.11;100.00;102836.32;107980;1254;72915;-70
2024/01/30 05:35:40;;;;;;;;;;;;;;;-4.12;100.00;102830.28;108034;1254;61652;-70
2024/01/30 05:38:07;;;;;;;;;;;;;;;-4.14;100.00;102831.79;108003;1254;59598;-71
2024/01/30 05:40:35;;;;;;;;;;;;;;;-4.15;100.00;102831.53;108031;1254;74670;-72
2024/01/30 05:43:03;;;;;;;;;;;;;;;-4.14;100.00;102833.89;107961;1253;71673;-72
2024/01/30 05:45:30;;;;;;;;;;;;;;;-4.14;100.00;102838.59;108023;1253;71252;-70
2024/01/30 05:47:58;;;;;;;;;;;;;;;-4.13;100.00;102842.02;108025;1254;60984;-71
2024/01/30 05:50:26;;;;;;;;;;;;;;;-4.10;100.00;102847.35;108033;1254;60127;-70
2024/01/30 05:52:54;;;;;;;;;;;;;;;-4.03;100.00;102849.86;108080;1253;72418;-71
2024/01/30 05:55:22;;;;;;;;;;;;;;;-3.95;100.00;102853.86;108048;1253;71497;-70
2024/01/30 05:57:52;;;;;;;;;;;;;;;-3.86;100.00;102847.85;108011;1254;71436;-70
2024/01/30 06:00:20;;;;;;;;;;;;;;;-3.80;100.00;102844.11;108033;1254;61120;-69
2024/01/30 06:02:48;;;;;;;;;;;;;;;-3.75;100.00;102840.47;108100;1254;59030;-70
2024/01/30 06:05:15;;;;;;;;;;;;;;;-3.75;100.00;102842.52;108036;1254;74705;-70
2024/01/30 06:07:43;;;;;;;;;;;;;;;-3.76;100.00;102841.91;108048;1254;72680;-70
2024/01/30 06:10:11;;;;;;;;;;;;;;;-3.74;100.00;102849.08;108047;1253;71364;-69
2024/01/30 06:12:39;;;;;;;;;;;;;;;-3.72;100.00;102850.86;108024;1254;61103;-70
2024/01/30 06:15:07;;;;;;;;;;;;;;;-3.67;100.00;102850.52;108051;1254;61265;-69
2024/01/30 06:17:35;;;;;;;;;;;;;;;-3.61;100.00;102847.27;108028;1254;73517;-69
2024/01/30 06:20:03;;;;;;;;;;;;;;;-3.55;100.00;102841.64;108146;1254;72969;-69
2024/01/30 06:22:31;;;;;;;;;;;;;;;-3.47;100.00;102843.92;108059;1254;72722;-69
2024/01/30 06:24:59;;;;;;;;;;;;;;;-3.40;100.00;102847.54;108055;1254;61301;-69
2024/01/30 06:27:27;;;;;;;;;;;;;;;-3.29;100.00;102849.90;107968;1254;61133;-69
2024/01/30 06:29:54;;;;;;;;;;;;;;;-3.19;100.00;102845.56;108005;1253;74760;-69
2024/01/30 06:32:22;;;;;;;;;;;;;;;-3.09;100.00;102841.64;108043;1254;72966;-69
2024/01/30 06:34:50;;;;;;;;;;;;;;;-2.97;100.00;102844.79;107957;1253;71181;-69
2024/01/30 06:37:18;;;;;;;;;;;;;;;-2.86;100.00;102845.23;107927;1254;61247;-69
2024/01/30 06:39:45;;;;;;;;;;;;;;;-2.74;100.00;102843.52;108087;1254;61101;-69
2024/01/30 06:42:13;;;;;;;;;;;;;;;-2.63;100.00;102843.19;107981;1254;73394;-70
2024/01/30 06:44:41;;;;;;;;;;;;;;;-2.51;100.00;102844.22;107953;1254;71870;-68
2024/01/30 06:47:09;;;;;;;;;;;;;;;-2.41;100.00;102840.14;107999;1254;71416;-69
2024/01/30 06:49:38;;;;;;;;;;;;;;;-2.30;100.00;102840.40;107982;1254;61169;-69
2024/01/30 06:52:06;;;;;;;;;;;;;;;-2.20;100.00;102840.30;108019;1254;61211;-70
2024/01/30 06:54:34;;;;;;;;;;;;;;;-2.11;100.00;102830.92;107966;1254;74065;-72
2024/01/30 06:57:01;;;;;;;;;;;;;;;-2.01;100.00;102835.19;107922;1254;71018;-69
2024/01/30 06:59:29;;;;;;;;;;;;;;;-1.92;100.00;102831.31;107980;1254;71412;-68
2024/01/30 07:01:57;;;;;;;;;;;;;;;-1.83;100.00;102834.98;107948;1254;59841;-68
2024/01/30 07:04:25;;;;;;;;;;;;;;;-1.75;100.00;102834.19;107951;1254;61160;-68
2024/01/30 07:06:55;;;;;;;;;;;;;;;-1.68;100.00;102829.98;107965;1254;74717;-69
2024/01/30 07:09:23;;;;;;;;;;;;;;;-1.61;100.00;102823.20;108018;1260;71218;-68
2024/01/30 07:11:55;;;;;;;;;;;;;;;-1.53;100.00;102823.88;107983;1254;72477;-68
2024/01/30 07:14:22;;;;;;;;;;;;;;;-1.44;100.00;102826.66;108017;1257;61270;-68
2024/01/30 07:16:50;;;;;;;;;;;;;;;-1.35;100.00;102827.91;108171;1254;61068;-67
2024/01/30 07:19:18;;;;;;;;;;;;;;;-1.27;100.00;102826.36;107921;1254;73600;-67
2024/01/30 07:21:46;;;;;;;;;;;;;;;-1.19;100.00;102827.98;107955;1254;72594;-67
2024/01/30 07:24:13;;;;;;;;;;;;;;;-1.12;100.00;102823.48;108041;1254;72751;-68
2024/01/30 07:26:43;;;;;;;;;;;;;;;-1.05;100.00;102825.17;108077;1256;61131;-68
2024/01/30 07:29:11;;;;;;;;;;;;;;;-0.97;100.00;102826.08;107946;1254;61132;-68
2024/01/30 07:31:38;;;;;;;;;;;;;;;-0.89;100.00;102818.27;107905;1254;73678;-68
2024/01/30 07:34:06;;;;;;;;;;;;;;;-0.81;100.00;102814.95;108008;1260;71709;-67
2024/01/30 07:36:34;;;;;;;;;;;;;;;-0.71;100.00;102814.48;107967;1254;72666;-69
2024/01/30 07:39:02;;;;;;;;;;;;;;;-0.62;100.00;102812.55;107993;1257;60498;-69
2024/01/30 07:41:30;;;;;;;;;;;;;;;-0.52;100.00;102807.83;108025;1254;61090;-69
2024/01/30 07:43:57;;;;;;;;;;;;;;;-0.44;100.00;102803.65;108027;1254;73413;-69
2024/01/30 07:46:25;;;;;;;;;;;;;;;-0.37;100.00;102802.23;108056;1254;70135;-68
2024/01/30 07:48:53;;;;;;;;;;;;;;;-0.29;100.00;102793.42;108021;1254;72687;-68
2024/01/30 07:51:21;;;;;;;;;;;;;;;-0.19;100.00;102787.00;107996;1254;61349;-68
2024/01/30 07:53:52;;;;;;;;;;;;;;;-0.09;100.00;102786.52;108055;1254;61234;-68
2024/01/30 07:56:20;;;;;;;;;;;;;;;-0.01;99.98;102791.26;108004;1254;73469;-68
2024/01/30 07:58:48;;;;;;;;;;;;;;;0.09;99.22;102788.45;108015;1254;71492;-69
2024/01/30 08:01:15;;;;;;;;;;;;;;;0.17;96.28;102782.85;108056;1256;72075;-69
2024/01/30 08:03:45;;;;;;;;;;;;;;;0.25;94.55;102780.06;108067;1254;61020;-70
2024/01/30 08:06:12;;;;;;;;;;;;;;;0.36;93.64;102780.50;108094;1254;59222;-69
2024/01/30 08:08:40;;;;;;;;;;;;;;;0.46;92.02;102781.00;108071;1254;74714;-69
2024/01/30 08:11:08;;;;;;;;;;;;;;;0.57;90.58;102785.66;108089;1254;73801;-69
2024/01/30 08:13:35;;;;;;;;;;;;;;;0.67;89.66;102781.73;108071;1257;71680;-69
2024/01/30 08:16:05;;;;;;;;;;;;;;;0.79;88.40;102780.57;107913;1256;61227;-74
2024/01/30 08:18:33;;;;;;;;;;;;;;;0.90;87.63;102779.91;107939;1257;61343;-70
2024/01/30 08:21:02;;;;;;;;;;;;;;;0.97;85.61;102779.08;107964;1255;73431;-69
2024/01/30 08:23:29;;;;;;;;;;;;;;;1.02;83.43;102778.07;107985;1257;72760;-70
2024/01/30 08:25:57;;;;;;;;;;;;;;;1.08;82.26;102770.16;107889;1257;71475;-71
2024/01/30 08:28:26;;;;;;;;;;;;;;;1.18;81.69;102758.75;107941;1256;63065;-69
2024/01/30 08:30:54;;;;;;;;;;;;;;;1.29;80.99;102758.45;107989;1257;61024;-70
2024/01/30 08:33:22;;;;;;;;;;;;;;;1.36;78.68;102757.05;107957;1261;73402;-70
2024/01/30 08:35:49;;;;;;;;;;;;;;;1.44;77.88;102757.46;107969;1257;71858;-70
2024/01/30 08:38:17;;;;;;;;;;;;;;;1.48;76.58;102758.02;107959;1254;71985;-70
2024/01/30 08:40:44;;;;;;;;;;;;;;;1.55;76.08;102750.42;108039;1254;61123;-70
2024/01/30 08:43:13;;;;;;;;;;;;;;;1.63;75.33;102746.83;108005;1254;61121;-70
2024/01/30 08:45:41;;;;;;;;;;;;;;;1.70;74.81;102748.48;108011;1254;75000;-70
2024/01/30 08:48:09;;;;;;;;;;;;;;;1.75;73.64;102745.58;108015;1254;72718;-70
2024/01/30 08:50:37;;;;;;;;;;;;;;;1.79;72.87;102739.52;108005;1255;72805;-70
2024/01/30 08:53:05;;;;;;;;;;;;;;;1.85;72.36;102744.54;108049;1256;61131;-70
2024/01/30 08:55:32;;;;;;;;;;;;;;;1.93;72.35;102746.14;108012;1254;61066;-70
2024/01/30 08:58:00;;;;;;;;;;;;;;;2.00;71.78;102736.31;108073;1254;73333;-70
2024/01/30 09:00:28;;;;;;;;;;;;;;;2.05;71.32;102731.59;107994;1254;72872;-71
2024/01/30 09:02:56;;;;;;;;;;;;;;;2.09;71.11;102724.33;107987;1257;71410;-70
2024/01/30 09:05:24;;;;;;;;;;;;;;;2.12;70.88;102722.11;107919;1257;61199;-71
2024/01/30 09:07:51;;;;;;;;;;;;;;;2.13;69.97;102715.06;107997;1254;61144;-71
2024/01/30 09:10:20;;;;;;;;;;;;;;;2.13;69.68;102711.38;108030;1254;74742;-71
2024/01/30 09:12:49;;;;;;;;;;;;;;;2.14;69.25;102706.91;107980;1254;73231;-71
2024/01/30 09:15:17;;;;;;;;;;;;;;;2.19;69.24;102701.29;108025;1255;71450;-70
2024/01/30 09:17:45;;;;;;;;;;;;;;;2.26;68.97;102703.88;107965;1260;61085;-71
2024/01/30 09:20:12;;;;;;;;;;;;;;;2.37;68.67;102694.79;107958;1257;61132;-70
2024/01/30 09:22:40;;;;;;;;;;;;;;;2.47;68.53;102686.56;108209;1258;74743;-70
2024/01/30 09:25:08;;;;;;;;;;;;;;;2.59;68.18;102686.30;108078;1254;71490;-72
2024/01/30 09:27:36;;;;;;;;;;;;;;;2.68;67.40;102680.32;107977;1257;71647;-71
2024/01/30 09:30:05;;;;;;;;;;;;;;;2.73;66.94;102679.11;107953;1254;61213;-70
2024/01/30 09:32:32;;;;;;;;;;;;;;;2.80;66.41;102675.21;108096;1254;61304;-71
2024/01/30 09:35:00;;;;;;;;;;;;;;;2.86;66.05;102674.60;108026;1254;73533;-70
2024/01/30 09:37:28;;;;;;;;;;;;;;;2.90;65.51;102665.61;107997;1254;72889;-70
2024/01/30 09:39:56;;;;;;;;;;;;;;;2.95;65.29;102660.14;107972;1253;72972;-69
2024/01/30 09:42:34;;;;;;;;;;;;;;;3.00;64.57;102658.23;108008;1254;61115;-74
2024/01/30 09:45:03;;;;;;;;;;;;;;;3.03;64.48;102651.76;108044;1254;61126;-73
2024/01/30 09:47:32;;;;;;;;;;;;;;;3.09;64.42;102637.86;108123;1254;73472;-70
2024/01/30 09:50:00;;;;;;;;;;;;;;;3.19;64.86;102640.85;108085;1254;71743;-71
2024/01/30 09:52:30;;;;;;;;;;;;;;;3.27;63.95;102629.40;108009;1254;73243;-71
2024/01/30 09:54:59;;;;;;;;;;;;;;;3.33;63.67;102626.49;108056;1254;61613;-69
2024/01/30 09:57:27;;;;;;;;;;;;;;;3.41;63.30;102626.59;108040;1254;61076;-71
2024/01/30 09:59:55;;;;;;;;;;;;;;;3.46;62.97;102622.65;108055;1254;74630;-71
2024/01/30 10:02:23;;;;;;;;;;;;;;;3.49;62.47;102629.58;107947;1254;73071;-71
2024/01/30 10:04:51;;;;;;;;;;;;;;;3.51;62.32;102622.38;107998;1254;74876;-71
2024/01/30 10:07:19;;;;;;;;;;;;;;;3.53;61.98;102622.45;107994;1254;61214;-71
2024/01/30 10:09:47;;;;;;;;;;;;;;;3.58;62.03;102620.98;108088;1254;59046;-70
2024/01/30 10:12:15;;;;;;;;;;;;;;;3.64;62.06;102619.75;107995;1254;74923;-71
2024/01/30 10:14:43;;;;;;;;;;;;;;;3.72;61.49;102613.70;108029;1254;73499;-71
2024/01/30 10:17:11;;;;;;;;;;;;;;;3.76;61.22;102617.60;108049;1254;74800;-71
2024/01/30 10:19:51;;;;;;;;;;;;;;;3.79;60.59;102613.52;108004;1254;61777;-72
2024/01/30 10:22:20;;;;;;;;;;;;;;;3.82;60.77;102605.27;108024;1254;61141;-70
2024/01/30 10:24:48;;;;;;;;;;;;;;;3.87;60.61;102600.45;108044;1254;74962;-73
2024/01/30 10:27:15;;;;;;;;;;;;;;;3.91;60.19;102599.44;108012;1254;75060;-70
2024/01/30 10:29:43;;;;;;;;;;;;;;;3.96;60.17;102596.50;108053;1254;74991;-71
2024/01/30 10:32:11;;;;;;;;;;;;;;;4.01;60.04;102601.05;108013;1257;59832;-70
2024/01/30 10:34:38;;;;;;;;;;;;;;;4.06;59.68;102597.56;107995;1254;61237;-70
2024/01/30 10:37:12;;;;;;;;;;;;;;;4.09;59.64;102594.05;107990;1254;74907;-71
2024/01/30 10:39:40;;;;;;;;;;;;;;;4.13;59.23;102593.24;108025;1254;72720;-70
2024/01/30 10:42:12;;;;;;;;;;;;;;;4.19;59.40;102590.58;108060;1254;72903;-71
2024/01/30 10:44:58;;;;;;;;;;;;;;;4.25;59.62;102592.40;108087;1257;61134;-70
2024/01/30 10:47:27;;;;;;;;;;;;;;;4.35;59.54;102596.06;108015;1254;61260;-71
2024/01/30 10:49:55;;;;;;;;;;;;;;;4.40;59.00;102599.68;108021;1254;75132;-70
2024/01/30 10:52:27;;;;;;;;;;;;;;;4.39;58.33;102595.08;108017;1254;73386;-70
2024/01/30 10:54:55;;;;;;;;;;;;;;;4.38;58.52;102593.39;107967;1253;72026;-70
2024/01/30 10:57:23;;;;;;;;;;;;;;;4.45;58.77;102594.45;108062;1254;61077;-71
2024/01/30 10:59:52;;;;;;;;;;;;;;;4.49;58.59;102595.38;108050;1260;61086;-71
2024/01/30 11:02:20;;;;;;;;;;;;;;;4.51;58.09;102594.20;107963;1254;73736;-71
2024/01/30 11:04:48;;;;;;;;;;;;;;;4.50;57.83;102591.73;107827;1254;71594;-71
2024/01/30 11:07:16;;;;;;;;;;;;;;;4.54;57.92;102585.17;108028;1254;73721;-72
2024/01/30 11:09:51;;;;;;;;;;;;;;;4.60;58.06;102582.39;108061;1257;61209;-73
2024/01/30 11:12:23;;;;;;;;;;;;;;;4.68;57.60;102579.58;108013;1254;61113;-72
2024/01/30 11:15:11;;;;;;;;;;;;;;;4.75;57.11;102581.47;108056;1254;75906;-72
2024/01/30 11:17:42;;;;;;;;;;;;;;;4.82;56.80;102576.97;107988;1254;72827;-73
2024/01/30 11:20:11;;;;;;;;;;;;;;;4.83;56.56;102572.39;107965;1260;73018;-73
2024/01/30 11:22:40;;;;;;;;;;;;;;;4.85;56.09;102566.56;108019;1254;61139;-73
2024/01/30 11:25:11;;;;;;;;;;;;;;;4.84;55.78;102561.27;108066;1254;62031;-72
2024/01/30 11:27:38;;;;;;;;;;;;;;;4.84;55.73;102560.55;108014;1254;73410;-72
2024/01/30 11:30:07;;;;;;;;;;;;;;;4.87;55.89;102551.30;108023;1254;73036;-71
2024/01/30 11:32:35;;;;;;;;;;;;;;;4.93;55.94;102551.21;108046;1254;72790;-71
2024/01/30 11:35:05;;;;;;;;;;;;;;;5.00;55.99;102542.15;107999;1259;61153;-72
2024/01/30 11:37:33;;;;;;;;;;;;;;;5.04;55.70;102542.40;107981;1253;61270;-71
2024/01/30 11:40:02;;;;;;;;;;;;;;;5.05;55.53;102538.92;107913;1254;77478;-71
2024/01/30 11:42:30;;;;;;;;;;;;;;;5.10;55.52;102539.30;108032;1254;72756;-71
2024/01/30 11:44:59;;;;;;;;;;;;;;;5.16;55.35;102534.14;107881;1255;74040;-70
2024/01/30 11:47:27;;;;;;;;;;;;;;;5.21;54.88;102532.77;107957;1256;61337;-70
2024/01/30 11:49:56;;;;;;;;;;;;;;;5.22;54.54;102534.98;108062;1254;61104;-70
2024/01/30 11:52:27;;;;;;;;;;;;;;;5.21;54.52;102533.23;108002;1253;76376;-71
2024/01/30 11:54:55;;;;;;;;;;;;;;;5.24;54.69;102532.35;107979;1254;74060;-70
2024/01/30 11:57:23;;;;;;;;;;;;;;;5.30;55.14;102532.06;108023;1254;74825;-71
2024/01/30 11:59:51;;;;;;;;;;;;;;;5.39;55.58;102530.69;108008;1257;61129;-71
2024/01/30 12:02:20;;;;;;;;;;;;;;;5.48;55.80;102526.86;107671;1254;420034;-74
2024/01/30 12:04:47;;;;;;;;;;;;;;;5.54;55.92;102519.20;108130;1253;76738;-71
2024/01/30 12:07:16;;;;;;;;;;;;;;;5.63;55.97;102515.41;108044;1254;72885;-71
2024/01/30 12:09:52;;;;;;;;;;;;;;;5.69;55.54;102515.02;107950;1254;74621;-72
2024/01/30 12:12:22;;;;;;;;;;;;;;;5.70;55.20;102510.48;85340;1254;10002351;-71
2024/01/30 12:14:50;;;;;;;;;;;;;;;5.72;55.07;102512.29;100338;1255;10001761;-72
2024/01/30 12:17:31;;;;;;;;;;;;;;;5.71;55.03;102515.91;107914;1254;76594;-71
2024/01/30 12:20:06;;;;;;;;;;;;;;;5.64;54.75;102512.28;107885;1253;74829;-70
2024/01/30 12:22:40;;;;;;;;;;;;;;;5.59;55.24;102511.20;107945;1260;73524;-71
2024/01/30 12:25:09;;;;;;;;;;;;;;;5.61;55.02;102517.45;107929;1254;60936;-71
2024/01/30 12:27:37;;;;;;;;;;;;;;;5.58;55.05;102517.15;107856;1254;62013;-73
2024/01/30 12:30:06;;;;;;;;;;;;;;;5.60;55.36;102512.88;107809;1254;77066;-72